Terminal Aerodrome Forecast
Issued by NWS Des Moines, IA

Home | Current Version | Previous Version | Text Only | Print | Product List | Glossary On
Versions: 1 2 3 4 5 6 7 8 9 10 11 12 13 14 15 16 17 18 19 20 21 22 23 24 25 26 27 28 29 30 31 32 33 34 35 36
000
FTUS43 KDMX 270556 CCA
TAFDSM
TAF COR
KDSM 270556Z 2706/2806 01004KT P6SM SCT005 SCT024
      TEMPO 2706/2709 5SM BR BKN024
     FM271200 02006KT P6SM BKN030
     FM271600 03009KT P6SM BKN050
     FM272100 02009KT P6SM SCT080=

USA.gov is the U.S. government's official web portal to all federal, state and local government web resources and services.